sensor_id;sensor_type;location;lat;lon;timestamp;temperature;humidity
44229;DHT22;29904;51.058;5.378;2022-10-31T00:01:24;13.90;99.90
44229;DHT22;29904;51.058;5.378;2022-10-31T00:03:52;13.90;99.90
44229;DHT22;29904;51.058;5.378;2022-10-31T00:06:18;13.90;99.90
44229;DHT22;29904;51.058;5.378;2022-10-31T00:08:55;13.90;99.90
44229;DHT22;29904;51.058;5.378;2022-10-31T00:11:21;14.00;99.90
44229;DHT22;29904;51.058;5.378;2022-10-31T00:13:47;14.00;99.90
44229;DHT22;29904;51.058;5.378;2022-10-31T00:16:18;14.00;99.90
44229;DHT22;29904;51.058;5.378;2022-10-31T00:18:51;14.00;99.90
44229;DHT22;29904;51.058;5.378;2022-10-31T00:21:19;14.00;99.90
44229;DHT22;29904;51.058;5.378;2022-10-31T00:23:44;14.00;99.90
44229;DHT22;29904;51.058;5.378;2022-10-31T00:26:10;14.00;99.90
44229;DHT22;29904;51.058;5.378;2022-10-31T00:28:36;14.00;99.90
44229;DHT22;29904;51.058;5.378;2022-10-31T00:31:05;14.00;99.90
44229;DHT22;29904;51.058;5.378;2022-10-31T00:33:33;13.90;99.90
44229;DHT22;29904;51.058;5.378;2022-10-31T00:36:02;13.90;99.90
44229;DHT22;29904;51.058;5.378;2022-10-31T00:38:27;13.90;99.90
44229;DHT22;29904;51.058;5.378;2022-10-31T00:40:53;14.00;99.90
44229;DHT22;29904;51.058;5.378;2022-10-31T00:43:19;14.00;99.90
44229;DHT22;29904;51.058;5.378;2022-10-31T00:45:44;14.00;99.90
44229;DHT22;29904;51.058;5.378;2022-10-31T00:48:10;14.00;99.90
44229;DHT22;29904;51.058;5.378;2022-10-31T00:50:36;14.00;99.90
44229;DHT22;29904;51.058;5.378;2022-10-31T00:53:02;14.00;99.90
44229;DHT22;29904;51.058;5.378;2022-10-31T00:55:28;14.00;99.90
44229;DHT22;29904;51.058;5.378;2022-10-31T00:57:54;14.00;99.90
44229;DHT22;29904;51.058;5.378;2022-10-31T01:00:19;14.00;99.90
44229;DHT22;29904;51.058;5.378;2022-10-31T01:02:45;14.00;99.90
44229;DHT22;29904;51.058;5.378;2022-10-31T01:05:14;14.00;99.90
44229;DHT22;29904;51.058;5.378;2022-10-31T01:07:40;14.00;99.90
44229;DHT22;29904;51.058;5.378;2022-10-31T01:10:07;14.00;99.90
44229;DHT22;29904;51.058;5.378;2022-10-31T01:12:40;13.90;99.90
44229;DHT22;29904;51.058;5.378;2022-10-31T01:15:07;13.90;99.90
44229;DHT22;29904;51.058;5.378;2022-10-31T01:17:33;13.90;99.90
44229;DHT22;29904;51.058;5.378;2022-10-31T01:20:01;13.90;99.90
44229;DHT22;29904;51.058;5.378;2022-10-31T01:22:27;13.80;99.90
44229;DHT22;29904;51.058;5.378;2022-10-31T01:24:53;13.80;99.90
44229;DHT22;29904;51.058;5.378;2022-10-31T01:27:19;13.60;99.90
44229;DHT22;29904;51.058;5.378;2022-10-31T01:29:44;13.60;99.90
44229;DHT22;29904;51.058;5.378;2022-10-31T01:32:10;13.60;99.90
44229;DHT22;29904;51.058;5.378;2022-10-31T01:34:36;13.60;99.90
44229;DHT22;29904;51.058;5.378;2022-10-31T01:37:02;13.60;99.90
44229;DHT22;29904;51.058;5.378;2022-10-31T01:39:27;13.50;99.90
44229;DHT22;29904;51.058;5.378;2022-10-31T01:41:55;13.50;99.90
44229;DHT22;29904;51.058;5.378;2022-10-31T01:49:38;13.50;99.90
44229;DHT22;29904;51.058;5.378;2022-10-31T01:52:27;13.50;99.90
44229;DHT22;29904;51.058;5.378;2022-10-31T01:55:05;13.50;99.90
44229;DHT22;29904;51.058;5.378;2022-10-31T01:57:32;13.40;99.90
44229;DHT22;29904;51.058;5.378;2022-10-31T02:00:04;13.40;99.90
44229;DHT22;29904;51.058;5.378;2022-10-31T02:02:31;13.40;99.90
44229;DHT22;29904;51.058;5.378;2022-10-31T02:05:00;13.40;99.90
44229;DHT22;29904;51.058;5.378;2022-10-31T02:07:39;13.40;99.90
44229;DHT22;29904;51.058;5.378;2022-10-31T02:10:07;13.40;99.90
44229;DHT22;29904;51.058;5.378;2022-10-31T02:12:34;13.30;99.90
44229;DHT22;29904;51.058;5.378;2022-10-31T02:15:02;13.30;99.90
44229;DHT22;29904;51.058;5.378;2022-10-31T02:17:30;13.20;99.90
44229;DHT22;29904;51.058;5.378;2022-10-31T02:22:53;13.10;99.90
44229;DHT22;29904;51.058;5.378;2022-10-31T02:25:56;13.00;99.90
44229;DHT22;29904;51.058;5.378;2022-10-31T02:29:03;13.00;99.90
44229;DHT22;29904;51.058;5.378;2022-10-31T02:31:49;13.00;99.90
44229;DHT22;29904;51.058;5.378;2022-10-31T02:34:35;13.00;99.90
44229;DHT22;29904;51.058;5.378;2022-10-31T02:37:20;13.10;99.90
44229;DHT22;29904;51.058;5.378;2022-10-31T02:40:00;13.00;99.90
44229;DHT22;29904;51.058;5.378;2022-10-31T02:45:35;13.10;99.90
44229;DHT22;29904;51.058;5.378;2022-10-31T02:48:10;13.20;99.90
44229;DHT22;29904;51.058;5.378;2022-10-31T02:50:42;13.20;99.90
44229;DHT22;29904;51.058;5.378;2022-10-31T02:53:14;13.30;99.90
44229;DHT22;29904;51.058;5.378;2022-10-31T02:58:37;13.20;99.90
44229;DHT22;29904;51.058;5.378;2022-10-31T03:03:47;13.10;99.90
44229;DHT22;29904;51.058;5.378;2022-10-31T03:06:19;13.00;99.90
44229;DHT22;29904;51.058;5.378;2022-10-31T03:12:15;13.00;99.90
44229;DHT22;29904;51.058;5.378;2022-10-31T03:14:56;13.00;99.90
44229;DHT22;29904;51.058;5.378;2022-10-31T03:17:36;13.00;99.90
44229;DHT22;29904;51.058;5.378;2022-10-31T03:20:06;12.90;99.90
44229;DHT22;29904;51.058;5.378;2022-10-31T03:22:33;12.90;99.90
44229;DHT22;29904;51.058;5.378;2022-10-31T03:25:02;12.90;99.90
44229;DHT22;29904;51.058;5.378;2022-10-31T03:27:32;12.80;99.90
44229;DHT22;29904;51.058;5.378;2022-10-31T03:30:02;12.80;99.90
44229;DHT22;29904;51.058;5.378;2022-10-31T03:32:34;12.70;99.90
44229;DHT22;29904;51.058;5.378;2022-10-31T03:35:02;12.70;99.90
44229;DHT22;29904;51.058;5.378;2022-10-31T03:37:32;12.70;99.90
44229;DHT22;29904;51.058;5.378;2022-10-31T03:40:00;12.60;99.90
44229;DHT22;29904;51.058;5.378;2022-10-31T03:42:30;12.60;99.90
44229;DHT22;29904;51.058;5.378;2022-10-31T03:45:04;12.60;99.90
44229;DHT22;29904;51.058;5.378;2022-10-31T03:47:32;12.60;99.90
44229;DHT22;29904;51.058;5.378;2022-10-31T03:49:59;12.60;99.90
44229;DHT22;29904;51.058;5.378;2022-10-31T03:52:50;12.60;99.90
44229;DHT22;29904;51.058;5.378;2022-10-31T03:55:24;12.60;99.90
44229;DHT22;29904;51.058;5.378;2022-10-31T03:58:06;12.70;99.90
44229;DHT22;29904;51.058;5.378;2022-10-31T04:00:35;12.70;99.90
44229;DHT22;29904;51.058;5.378;2022-10-31T04:03:09;12.70;99.90
44229;DHT22;29904;51.058;5.378;2022-10-31T04:05:37;12.70;99.90
44229;DHT22;29904;51.058;5.378;2022-10-31T04:08:07;12.70;99.90
44229;DHT22;29904;51.058;5.378;2022-10-31T04:10:36;12.80;99.90
44229;DHT22;29904;51.058;5.378;2022-10-31T04:13:09;12.80;99.90
44229;DHT22;29904;51.058;5.378;2022-10-31T04:15:37;12.80;99.90
44229;DHT22;29904;51.058;5.378;2022-10-31T04:18:04;12.80;99.90
44229;DHT22;29904;51.058;5.378;2022-10-31T04:20:41;12.90;99.90
44229;DHT22;29904;51.058;5.378;2022-10-31T04:23:25;12.80;99.90
44229;DHT22;29904;51.058;5.378;2022-10-31T04:25:51;12.80;99.90
44229;DHT22;29904;51.058;5.378;2022-10-31T04:28:17;12.80;99.90
44229;DHT22;29904;51.058;5.378;2022-10-31T04:30:43;12.80;99.90
44229;DHT22;29904;51.058;5.378;2022-10-31T04:33:11;12.80;99.90
44229;DHT22;29904;51.058;5.378;2022-10-31T04:35:39;12.70;99.90
44229;DHT22;29904;51.058;5.378;2022-10-31T04:38:06;12.70;99.90
44229;DHT22;29904;51.058;5.378;2022-10-31T04:40:34;12.60;99.90
44229;DHT22;29904;51.058;5.378;2022-10-31T04:43:00;12.60;99.90
44229;DHT22;29904;51.058;5.378;2022-10-31T04:45:26;12.60;99.90
44229;DHT22;29904;51.058;5.378;2022-10-31T04:47:52;12.60;99.90
44229;DHT22;29904;51.058;5.378;2022-10-31T04:50:17;12.60;99.90
44229;DHT22;29904;51.058;5.378;2022-10-31T04:52:44;12.50;99.90
44229;DHT22;29904;51.058;5.378;2022-10-31T04:55:11;12.40;99.90
44229;DHT22;29904;51.058;5.378;2022-10-31T04:57:45;12.40;99.90
44229;DHT22;29904;51.058;5.378;2022-10-31T05:00:12;12.40;99.90
44229;DHT22;29904;51.058;5.378;2022-10-31T05:02:50;12.30;99.90
44229;DHT22;29904;51.058;5.378;2022-10-31T05:05:17;12.30;99.90
44229;DHT22;29904;51.058;5.378;2022-10-31T05:07:44;12.30;99.90
44229;DHT22;29904;51.058;5.378;2022-10-31T05:10:12;12.30;99.90
44229;DHT22;29904;51.058;5.378;2022-10-31T05:12:49;12.30;99.90
44229;DHT22;29904;51.058;5.378;2022-10-31T05:15:16;12.30;99.90
44229;DHT22;29904;51.058;5.378;2022-10-31T05:17:42;12.40;99.90
44229;DHT22;29904;51.058;5.378;2022-10-31T05:20:08;12.40;99.90
44229;DHT22;29904;51.058;5.378;2022-10-31T05:22:34;12.30;99.90
44229;DHT22;29904;51.058;5.378;2022-10-31T05:25:00;12.30;99.90
44229;DHT22;29904;51.058;5.378;2022-10-31T05:27:28;12.20;99.90
44229;DHT22;29904;51.058;5.378;2022-10-31T05:29:53;12.20;99.90
44229;DHT22;29904;51.058;5.378;2022-10-31T05:32:19;12.20;99.90
44229;DHT22;29904;51.058;5.378;2022-10-31T05:34:47;12.10;99.90
44229;DHT22;29904;51.058;5.378;2022-10-31T05:37:12;12.10;99.90
44229;DHT22;29904;51.058;5.378;2022-10-31T05:39:38;12.00;99.90
44229;DHT22;29904;51.058;5.378;2022-10-31T05:42:04;12.00;99.90
44229;DHT22;29904;51.058;5.378;2022-10-31T05:44:30;12.00;99.90
44229;DHT22;29904;51.058;5.378;2022-10-31T05:46:55;12.00;99.90
44229;DHT22;29904;51.058;5.378;2022-10-31T05:49:23;12.10;99.90
44229;DHT22;29904;51.058;5.378;2022-10-31T05:51:49;12.00;99.90
44229;DHT22;29904;51.058;5.378;2022-10-31T05:54:16;12.00;99.90
44229;DHT22;29904;51.058;5.378;2022-10-31T05:56:42;11.90;99.90
44229;DHT22;29904;51.058;5.378;2022-10-31T05:59:07;12.00;99.90
44229;DHT22;29904;51.058;5.378;2022-10-31T06:01:35;12.00;99.90
44229;DHT22;29904;51.058;5.378;2022-10-31T06:04:00;12.00;99.90
44229;DHT22;29904;51.058;5.378;2022-10-31T06:06:26;12.00;99.90
44229;DHT22;29904;51.058;5.378;2022-10-31T06:08:54;12.00;99.90
44229;DHT22;29904;51.058;5.378;2022-10-31T06:11:19;12.00;99.90
44229;DHT22;29904;51.058;5.378;2022-10-31T06:13:45;11.90;99.90
44229;DHT22;29904;51.058;5.378;2022-10-31T06:16:11;11.90;99.90
44229;DHT22;29904;51.058;5.378;2022-10-31T06:18:36;11.90;99.90
44229;DHT22;29904;51.058;5.378;2022-10-31T06:21:02;11.90;99.90
44229;DHT22;29904;51.058;5.378;2022-10-31T06:23:28;11.90;99.90
44229;DHT22;29904;51.058;5.378;2022-10-31T06:25:54;12.00;99.90
44229;DHT22;29904;51.058;5.378;2022-10-31T06:28:20;12.00;99.90
44229;DHT22;29904;51.058;5.378;2022-10-31T06:30:46;12.00;99.90
44229;DHT22;29904;51.058;5.378;2022-10-31T06:33:12;12.00;99.90
44229;DHT22;29904;51.058;5.378;2022-10-31T06:35:38;11.90;99.90
44229;DHT22;29904;51.058;5.378;2022-10-31T06:38:03;11.90;99.90
44229;DHT22;29904;51.058;5.378;2022-10-31T06:40:29;11.90;99.90
44229;DHT22;29904;51.058;5.378;2022-10-31T06:42:59;11.90;99.90
44229;DHT22;29904;51.058;5.378;2022-10-31T06:45:25;11.80;99.90
44229;DHT22;29904;51.058;5.378;2022-10-31T06:47:53;11.90;99.90
44229;DHT22;29904;51.058;5.378;2022-10-31T06:50:20;11.90;99.90
44229;DHT22;29904;51.058;5.378;2022-10-31T06:52:54;11.90;99.90
44229;DHT22;29904;51.058;5.378;2022-10-31T06:55:22;11.90;99.90
44229;DHT22;29904;51.058;5.378;2022-10-31T06:57:55;12.00;99.90
44229;DHT22;29904;51.058;5.378;2022-10-31T07:00:22;12.00;99.90
44229;DHT22;29904;51.058;5.378;2022-10-31T07:03:05;11.90;99.90
44229;DHT22;29904;51.058;5.378;2022-10-31T07:05:31;11.80;99.90
44229;DHT22;29904;51.058;5.378;2022-10-31T07:08:00;11.90;99.90
44229;DHT22;29904;51.058;5.378;2022-10-31T07:10:27;11.90;99.90
44229;DHT22;29904;51.058;5.378;2022-10-31T07:12:57;12.00;99.90
44229;DHT22;29904;51.058;5.378;2022-10-31T07:15:24;11.90;99.90
44229;DHT22;29904;51.058;5.378;2022-10-31T07:17:50;12.00;99.90
44229;DHT22;29904;51.058;5.378;2022-10-31T07:20:16;12.00;99.90
44229;DHT22;29904;51.058;5.378;2022-10-31T07:22:42;12.10;99.90
44229;DHT22;29904;51.058;5.378;2022-10-31T07:25:10;12.10;99.90
44229;DHT22;29904;51.058;5.378;2022-10-31T07:27:40;12.10;99.90
44229;DHT22;29904;51.058;5.378;2022-10-31T07:30:08;12.10;99.90
44229;DHT22;29904;51.058;5.378;2022-10-31T07:32:41;12.10;99.90
44229;DHT22;29904;51.058;5.378;2022-10-31T07:35:08;12.10;99.90
44229;DHT22;29904;51.058;5.378;2022-10-31T07:37:35;12.10;99.90
44229;DHT22;29904;51.058;5.378;2022-10-31T07:40:03;12.20;99.90
44229;DHT22;29904;51.058;5.378;2022-10-31T07:42:29;12.20;99.90
44229;DHT22;29904;51.058;5.378;2022-10-31T07:44:55;12.30;99.90
44229;DHT22;29904;51.058;5.378;2022-10-31T07:47:22;12.40;99.90
44229;DHT22;29904;51.058;5.378;2022-10-31T07:49:48;12.40;99.90
44229;DHT22;29904;51.058;5.378;2022-10-31T07:52:14;12.50;99.90
44229;DHT22;29904;51.058;5.378;2022-10-31T07:54:42;12.60;99.90
44229;DHT22;29904;51.058;5.378;2022-10-31T07:57:07;12.60;99.90
44229;DHT22;29904;51.058;5.378;2022-10-31T07:59:33;12.70;99.90
44229;DHT22;29904;51.058;5.378;2022-10-31T08:01:59;12.80;99.90
44229;DHT22;29904;51.058;5.378;2022-10-31T08:04:24;12.80;99.90
44229;DHT22;29904;51.058;5.378;2022-10-31T08:06:50;12.90;99.90
44229;DHT22;29904;51.058;5.378;2022-10-31T08:09:18;12.90;99.90
44229;DHT22;29904;51.058;5.378;2022-10-31T08:11:44;13.00;99.90
44229;DHT22;29904;51.058;5.378;2022-10-31T08:14:09;13.20;99.90
44229;DHT22;29904;51.058;5.378;2022-10-31T08:16:35;13.30;99.90
44229;DHT22;29904;51.058;5.378;2022-10-31T08:19:00;13.40;99.90
44229;DHT22;29904;51.058;5.378;2022-10-31T08:21:26;13.50;99.90
44229;DHT22;29904;51.058;5.378;2022-10-31T08:23:52;13.60;99.90
44229;DHT22;29904;51.058;5.378;2022-10-31T08:26:17;13.70;99.90
44229;DHT22;29904;51.058;5.378;2022-10-31T08:28:43;13.80;99.90
44229;DHT22;29904;51.058;5.378;2022-10-31T08:31:11;13.90;99.90
44229;DHT22;29904;51.058;5.378;2022-10-31T08:33:37;14.10;99.90
44229;DHT22;29904;51.058;5.378;2022-10-31T08:36:03;14.20;99.90
44229;DHT22;29904;51.058;5.378;2022-10-31T08:38:29;14.30;99.90
44229;DHT22;29904;51.058;5.378;2022-10-31T08:40:54;14.40;99.90
44229;DHT22;29904;51.058;5.378;2022-10-31T08:43:20;14.40;99.90
44229;DHT22;29904;51.058;5.378;2022-10-31T08:45:48;14.50;99.90
44229;DHT22;29904;51.058;5.378;2022-10-31T08:48:16;14.50;99.90
44229;DHT22;29904;51.058;5.378;2022-10-31T08:50:43;14.70;99.90
44229;DHT22;29904;51.058;5.378;2022-10-31T08:53:16;14.80;99.90
44229;DHT22;29904;51.058;5.378;2022-10-31T08:55:43;14.90;99.90
44229;DHT22;29904;51.058;5.378;2022-10-31T08:58:17;15.00;99.90
44229;DHT22;29904;51.058;5.378;2022-10-31T09:00:46;15.10;99.90
44229;DHT22;29904;51.058;5.378;2022-10-31T09:03:14;15.20;99.90
44229;DHT22;29904;51.058;5.378;2022-10-31T09:05:40;15.30;99.90
44229;DHT22;29904;51.058;5.378;2022-10-31T09:08:08;15.40;99.90
44229;DHT22;29904;51.058;5.378;2022-10-31T09:10:35;15.50;99.90
44229;DHT22;29904;51.058;5.378;2022-10-31T09:13:06;15.50;99.90
44229;DHT22;29904;51.058;5.378;2022-10-31T09:15:34;15.60;99.90
44229;DHT22;29904;51.058;5.378;2022-10-31T09:18:02;15.70;99.90
44229;DHT22;29904;51.058;5.378;2022-10-31T09:20:29;15.80;99.90
44229;DHT22;29904;51.058;5.378;2022-10-31T09:23:04;15.90;99.90
44229;DHT22;29904;51.058;5.378;2022-10-31T09:25:29;16.00;99.90
44229;DHT22;29904;51.058;5.378;2022-10-31T09:28:00;16.10;99.90
44229;DHT22;29904;51.058;5.378;2022-10-31T09:30:28;16.10;99.90
44229;DHT22;29904;51.058;5.378;2022-10-31T09:33:02;16.10;99.90
44229;DHT22;29904;51.058;5.378;2022-10-31T09:35:28;16.20;99.90
44229;DHT22;29904;51.058;5.378;2022-10-31T09:38:01;16.20;99.90
44229;DHT22;29904;51.058;5.378;2022-10-31T09:40:35;16.30;99.90
44229;DHT22;29904;51.058;5.378;2022-10-31T09:48:40;16.50;99.90
44229;DHT22;29904;51.058;5.378;2022-10-31T09:51:18;16.50;99.90
44229;DHT22;29904;51.058;5.378;2022-10-31T09:56:31;16.50;99.90
44229;DHT22;29904;51.058;5.378;2022-10-31T09:58:59;16.50;99.90
44229;DHT22;29904;51.058;5.378;2022-10-31T10:01:49;16.40;99.90
44229;DHT22;29904;51.058;5.378;2022-10-31T10:04:38;16.40;99.90
44229;DHT22;29904;51.058;5.378;2022-10-31T10:09:38;16.70;99.90
44229;DHT22;29904;51.058;5.378;2022-10-31T10:12:40;16.80;99.90
44229;DHT22;29904;51.058;5.378;2022-10-31T10:21:03;17.30;99.90
44229;DHT22;29904;51.058;5.378;2022-10-31T10:26:45;17.50;99.90
44229;DHT22;29904;51.058;5.378;2022-10-31T10:29:24;17.60;99.90
44229;DHT22;29904;51.058;5.378;2022-10-31T10:31:52;17.70;99.90
44229;DHT22;29904;51.058;5.378;2022-10-31T10:34:35;17.70;99.90
44229;DHT22;29904;51.058;5.378;2022-10-31T10:37:11;17.70;99.90
44229;DHT22;29904;51.058;5.378;2022-10-31T10:39:43;17.80;99.90
44229;DHT22;29904;51.058;5.378;2022-10-31T10:42:14;17.80;99.90
44229;DHT22;29904;51.058;5.378;2022-10-31T10:44:59;17.70;99.90
44229;DHT22;29904;51.058;5.378;2022-10-31T10:47:48;17.80;99.90
44229;DHT22;29904;51.058;5.378;2022-10-31T10:50:21;17.80;99.90
44229;DHT22;29904;51.058;5.378;2022-10-31T10:53:09;17.90;99.90
44229;DHT22;29904;51.058;5.378;2022-10-31T10:55:56;17.90;99.90
44229;DHT22;29904;51.058;5.378;2022-10-31T10:58:25;18.00;99.90
44229;DHT22;29904;51.058;5.378;2022-10-31T11:00:52;18.10;99.90
44229;DHT22;29904;51.058;5.378;2022-10-31T11:03:19;18.20;99.90
44229;DHT22;29904;51.058;5.378;2022-10-31T11:05:49;18.20;99.90
44229;DHT22;29904;51.058;5.378;2022-10-31T11:08:34;18.30;99.90
44229;DHT22;29904;51.058;5.378;2022-10-31T11:13:30;18.30;99.90
44229;DHT22;29904;51.058;5.378;2022-10-31T11:18:51;18.30;99.90
44229;DHT22;29904;51.058;5.378;2022-10-31T11:21:25;18.20;99.90
44229;DHT22;29904;51.058;5.378;2022-10-31T11:24:02;18.30;99.90
44229;DHT22;29904;51.058;5.378;2022-10-31T11:26:28;18.30;99.90
44229;DHT22;29904;51.058;5.378;2022-10-31T11:28:59;18.20;99.90
44229;DHT22;29904;51.058;5.378;2022-10-31T11:31:25;18.30;99.90
44229;DHT22;29904;51.058;5.378;2022-10-31T11:34:11;18.30;99.90
44229;DHT22;29904;51.058;5.378;2022-10-31T11:36:39;18.40;99.90
44229;DHT22;29904;51.058;5.378;2022-10-31T11:39:20;18.40;99.90
44229;DHT22;29904;51.058;5.378;2022-10-31T11:41:48;18.60;99.90
44229;DHT22;29904;51.058;5.378;2022-10-31T11:44:23;18.60;99.90
44229;DHT22;29904;51.058;5.378;2022-10-31T11:46:56;18.60;99.90
44229;DHT22;29904;51.058;5.378;2022-10-31T11:52:14;18.70;99.90
44229;DHT22;29904;51.058;5.378;2022-10-31T11:54:48;18.80;99.90
44229;DHT22;29904;51.058;5.378;2022-10-31T11:57:48;18.90;99.90
44229;DHT22;29904;51.058;5.378;2022-10-31T12:00:36;18.90;99.90
44229;DHT22;29904;51.058;5.378;2022-10-31T12:06:00;18.80;99.90
44229;DHT22;29904;51.058;5.378;2022-10-31T12:08:36;18.70;99.90
44229;DHT22;29904;51.058;5.378;2022-10-31T12:14:08;18.50;99.90
44229;DHT22;29904;51.058;5.378;2022-10-31T12:16:52;18.40;99.90
44229;DHT22;29904;51.058;5.378;2022-10-31T12:19:46;18.30;99.90
44229;DHT22;29904;51.058;5.378;2022-10-31T12:22:42;18.30;99.90
44229;DHT22;29904;51.058;5.378;2022-10-31T12:25:24;18.20;99.90
44229;DHT22;29904;51.058;5.378;2022-10-31T12:30:56;18.10;99.90
44229;DHT22;29904;51.058;5.378;2022-10-31T12:33:40;18.10;99.90
44229;DHT22;29904;51.058;5.378;2022-10-31T12:36:32;18.00;99.90
44229;DHT22;29904;51.058;5.378;2022-10-31T12:44:53;18.00;99.90
44229;DHT22;29904;51.058;5.378;2022-10-31T12:50:27;18.00;99.90
44229;DHT22;29904;51.058;5.378;2022-10-31T12:55:40;18.00;99.90
44229;DHT22;29904;51.058;5.378;2022-10-31T13:01:15;18.00;99.90
44229;DHT22;29904;51.058;5.378;2022-10-31T13:03:58;18.00;99.90
44229;DHT22;29904;51.058;5.378;2022-10-31T13:06:40;18.10;99.90
44229;DHT22;29904;51.058;5.378;2022-10-31T13:09:11;18.10;99.90
44229;DHT22;29904;51.058;5.378;2022-10-31T13:11:44;18.20;99.90
44229;DHT22;29904;51.058;5.378;2022-10-31T13:16:47;18.20;99.90
44229;DHT22;29904;51.058;5.378;2022-10-31T13:19:25;18.30;99.90
44229;DHT22;29904;51.058;5.378;2022-10-31T13:24:39;18.30;99.90
44229;DHT22;29904;51.058;5.378;2022-10-31T13:27:18;18.30;99.90
44229;DHT22;29904;51.058;5.378;2022-10-31T13:30:05;18.30;99.90
44229;DHT22;29904;51.058;5.378;2022-10-31T13:32:43;18.40;99.90
44229;DHT22;29904;51.058;5.378;2022-10-31T13:40:54;18.60;99.90
44229;DHT22;29904;51.058;5.378;2022-10-31T13:46:01;18.90;99.90
44229;DHT22;29904;51.058;5.378;2022-10-31T13:50:59;19.00;99.90
44229;DHT22;29904;51.058;5.378;2022-10-31T13:53:45;19.10;99.90
44229;DHT22;29904;51.058;5.378;2022-10-31T13:56:33;19.10;99.90
44229;DHT22;29904;51.058;5.378;2022-10-31T14:01:36;19.00;99.90
44229;DHT22;29904;51.058;5.378;2022-10-31T14:04:16;19.00;99.90
44229;DHT22;29904;51.058;5.378;2022-10-31T14:09:37;19.00;99.90
44229;DHT22;29904;51.058;5.378;2022-10-31T14:12:08;19.10;99.90
44229;DHT22;29904;51.058;5.378;2022-10-31T14:14:51;19.10;99.90
44229;DHT22;29904;51.058;5.378;2022-10-31T14:17:21;19.20;99.90
44229;DHT22;29904;51.058;5.378;2022-10-31T14:23:32;19.30;99.90
44229;DHT22;29904;51.058;5.378;2022-10-31T14:28:50;19.30;99.90
44229;DHT22;29904;51.058;5.378;2022-10-31T14:36:34;19.20;99.90
44229;DHT22;29904;51.058;5.378;2022-10-31T14:41:58;19.10;99.90
44229;DHT22;29904;51.058;5.378;2022-10-31T14:53:04;18.90;99.90
44229;DHT22;29904;51.058;5.378;2022-10-31T14:55:33;18.90;99.90
44229;DHT22;29904;51.058;5.378;2022-10-31T14:58:05;18.70;99.90
44229;DHT22;29904;51.058;5.378;2022-10-31T15:00:33;18.70;99.90
44229;DHT22;29904;51.058;5.378;2022-10-31T15:03:22;18.60;99.90
44229;DHT22;29904;51.058;5.378;2022-10-31T15:05:52;18.60;99.90
44229;DHT22;29904;51.058;5.378;2022-10-31T15:11:14;18.50;99.90
44229;DHT22;29904;51.058;5.378;2022-10-31T15:13:51;18.50;99.90
44229;DHT22;29904;51.058;5.378;2022-10-31T15:16:38;18.40;99.90
44229;DHT22;29904;51.058;5.378;2022-10-31T15:19:08;18.40;99.90
44229;DHT22;29904;51.058;5.378;2022-10-31T15:21:38;18.40;99.90
44229;DHT22;29904;51.058;5.378;2022-10-31T15:24:05;18.40;99.90
44229;DHT22;29904;51.058;5.378;2022-10-31T15:26:43;18.30;99.90
44229;DHT22;29904;51.058;5.378;2022-10-31T15:29:16;18.30;99.90
44229;DHT22;29904;51.058;5.378;2022-10-31T15:36:58;18.10;99.90
44229;DHT22;29904;51.058;5.378;2022-10-31T15:39:23;18.10;99.90
44229;DHT22;29904;51.058;5.378;2022-10-31T15:41:51;18.10;99.90
44229;DHT22;29904;51.058;5.378;2022-10-31T15:44:29;18.00;99.90
44229;DHT22;29904;51.058;5.378;2022-10-31T15:47:05;17.90;99.90
44229;DHT22;29904;51.058;5.378;2022-10-31T15:49:40;17.90;99.90
44229;DHT22;29904;51.058;5.378;2022-10-31T15:52:32;17.80;99.90
44229;DHT22;29904;51.058;5.378;2022-10-31T15:55:25;17.70;99.90
44229;DHT22;29904;51.058;5.378;2022-10-31T15:57:53;17.70;99.90
44229;DHT22;29904;51.058;5.378;2022-10-31T16:00:28;17.60;99.90
44229;DHT22;29904;51.058;5.378;2022-10-31T16:05:55;17.50;99.90
44229;DHT22;29904;51.058;5.378;2022-10-31T16:08:32;17.40;99.90
44229;DHT22;29904;51.058;5.378;2022-10-31T16:11:24;17.40;99.90
44229;DHT22;29904;51.058;5.378;2022-10-31T16:14:00;17.30;99.90
44229;DHT22;29904;51.058;5.378;2022-10-31T16:16:28;17.30;99.90
44229;DHT22;29904;51.058;5.378;2022-10-31T16:18:56;17.30;99.90
44229;DHT22;29904;51.058;5.378;2022-10-31T16:21:36;17.30;99.90
44229;DHT22;29904;51.058;5.378;2022-10-31T16:24:24;17.20;99.90
44229;DHT22;29904;51.058;5.378;2022-10-31T16:26:57;17.20;99.90
44229;DHT22;29904;51.058;5.378;2022-10-31T16:31:55;16.90;99.90
44229;DHT22;29904;51.058;5.378;2022-10-31T16:34:22;16.80;99.90
44229;DHT22;29904;51.058;5.378;2022-10-31T16:36:50;16.80;99.90
44229;DHT22;29904;51.058;5.378;2022-10-31T16:39:18;16.70;99.90
44229;DHT22;29904;51.058;5.378;2022-10-31T16:41:46;16.70;99.90
44229;DHT22;29904;51.058;5.378;2022-10-31T16:44:30;16.70;99.90
44229;DHT22;29904;51.058;5.378;2022-10-31T16:49:33;16.60;99.90
44229;DHT22;29904;51.058;5.378;2022-10-31T16:51:59;16.60;99.90
44229;DHT22;29904;51.058;5.378;2022-10-31T16:54:25;16.50;99.90
44229;DHT22;29904;51.058;5.378;2022-10-31T16:56:50;16.50;99.90
44229;DHT22;29904;51.058;5.378;2022-10-31T16:59:16;16.40;99.90
44229;DHT22;29904;51.058;5.378;2022-10-31T17:01:44;16.30;99.90
44229;DHT22;29904;51.058;5.378;2022-10-31T17:04:13;16.20;99.90
44229;DHT22;29904;51.058;5.378;2022-10-31T17:06:40;16.10;99.90
44229;DHT22;29904;51.058;5.378;2022-10-31T17:09:08;16.10;99.90
44229;DHT22;29904;51.058;5.378;2022-10-31T17:11:34;16.00;99.90
44229;DHT22;29904;51.058;5.378;2022-10-31T17:14:00;16.00;99.90
44229;DHT22;29904;51.058;5.378;2022-10-31T17:16:26;16.00;99.90
44229;DHT22;29904;51.058;5.378;2022-10-31T17:18:52;16.00;99.90
44229;DHT22;29904;51.058;5.378;2022-10-31T17:21:21;16.00;99.90
44229;DHT22;29904;51.058;5.378;2022-10-31T17:23:49;16.00;99.90
44229;DHT22;29904;51.058;5.378;2022-10-31T17:26:16;16.00;99.90
44229;DHT22;29904;51.058;5.378;2022-10-31T17:28:41;16.00;99.90
44229;DHT22;29904;51.058;5.378;2022-10-31T17:31:29;16.00;99.90
44229;DHT22;29904;51.058;5.378;2022-10-31T17:33:56;15.90;99.90
44229;DHT22;29904;51.058;5.378;2022-10-31T17:36:22;15.90;99.90
44229;DHT22;29904;51.058;5.378;2022-10-31T17:38:50;15.90;99.90
44229;DHT22;29904;51.058;5.378;2022-10-31T17:41:16;15.90;99.90
44229;DHT22;29904;51.058;5.378;2022-10-31T17:43:43;15.90;99.90
44229;DHT22;29904;51.058;5.378;2022-10-31T17:46:11;15.80;99.90
44229;DHT22;29904;51.058;5.378;2022-10-31T17:48:37;15.80;99.90
44229;DHT22;29904;51.058;5.378;2022-10-31T17:51:05;15.80;99.90
44229;DHT22;29904;51.058;5.378;2022-10-31T17:53:32;15.80;99.90
44229;DHT22;29904;51.058;5.378;2022-10-31T17:56:06;15.80;99.90
44229;DHT22;29904;51.058;5.378;2022-10-31T17:58:33;15.80;99.90
44229;DHT22;29904;51.058;5.378;2022-10-31T18:00:59;15.70;99.90
44229;DHT22;29904;51.058;5.378;2022-10-31T18:03:25;15.70;99.90
44229;DHT22;29904;51.058;5.378;2022-10-31T18:05:55;15.70;99.90